createdAt,value
2019-05-22T00:02:22.318Z,13.90
2019-05-22T00:05:13.866Z,13.67
2019-05-22T00:07:49.602Z,13.67
2019-05-22T00:10:26.754Z,13.68
2019-05-22T00:13:00.298Z,13.68
2019-05-22T00:15:34.392Z,13.32
2019-05-22T00:18:10.597Z,13.32
2019-05-22T00:20:45.474Z,13.46
2019-05-22T00:23:20.295Z,13.19
2019-05-22T00:25:54.770Z,13.09
2019-05-22T00:28:27.313Z,13.09
2019-05-22T00:31:01.779Z,12.84
2019-05-22T00:33:36.417Z,12.84
2019-05-22T00:36:11.340Z,12.74
2019-05-22T00:38:46.694Z,12.84
2019-05-22T00:41:22.665Z,12.73
2019-05-22T00:43:58.706Z,12.77
2019-05-22T00:46:31.287Z,12.76
2019-05-22T00:49:05.517Z,12.60
2019-05-22T00:51:44.529Z,12.80
2019-05-22T00:54:25.300Z,12.68
2019-05-22T00:56:59.341Z,12.85
2019-05-22T00:59:37.070Z,12.62
2019-05-22T01:02:13.772Z,12.62
2019-05-22T01:04:48.721Z,12.22
2019-05-22T01:07:22.848Z,12.43
2019-05-22T01:09:59.043Z,12.87
2019-05-22T01:12:33.479Z,13.08
2019-05-22T01:15:12.279Z,12.96
2019-05-22T01:17:45.479Z,12.91
2019-05-22T01:20:19.786Z,12.91
2019-05-22T01:22:54.286Z,12.73
2019-05-22T01:25:29.391Z,12.68
2019-05-22T01:30:00.816Z,12.68
2019-05-22T01:32:40.499Z,12.69
2019-05-22T01:35:14.287Z,12.42
2019-05-22T01:37:48.734Z,12.13
2019-05-22T01:40:30.298Z,12.43
2019-05-22T01:43:09.315Z,12.04
2019-05-22T01:45:44.330Z,12.10
2019-05-22T01:48:27.766Z,12.10
2019-05-22T01:51:01.932Z,11.77
2019-05-22T01:53:39.363Z,12.07
2019-05-22T01:56:13.901Z,12.15
2019-05-22T01:58:47.621Z,12.15
2019-05-22T02:01:22.443Z,12.05
2019-05-22T02:03:56.616Z,12.05
2019-05-22T02:06:30.754Z,12.50
2019-05-22T02:09:18.562Z,12.27
2019-05-22T02:11:57.323Z,12.06
2019-05-22T02:14:30.823Z,12.39
2019-05-22T02:17:06.294Z,12.39
2019-05-22T02:19:39.214Z,12.31
2019-05-22T02:22:13.578Z,12.31
2019-05-22T02:24:49.311Z,12.33
2019-05-22T02:27:22.442Z,12.46
2019-05-22T02:29:55.765Z,12.46
2019-05-22T02:32:29.659Z,12.58
2019-05-22T02:35:02.143Z,12.80
2019-05-22T02:37:36.586Z,12.87
2019-05-22T02:40:24.803Z,12.84
2019-05-22T02:42:58.283Z,12.95
2019-05-22T02:45:34.411Z,12.97
2019-05-22T02:48:09.741Z,12.97
2019-05-22T02:50:42.608Z,12.95
2019-05-22T02:53:17.291Z,12.67
2019-05-22T02:55:51.281Z,12.67
2019-05-22T02:58:24.648Z,12.42
2019-05-22T03:01:06.837Z,12.42
2019-05-22T03:03:39.640Z,12.14
2019-05-22T03:06:17.499Z,12.28
2019-05-22T03:09:12.137Z,12.28
2019-05-22T03:12:02.653Z,12.23
2019-05-22T03:14:36.378Z,12.28
2019-05-22T03:17:15.570Z,12.29
2019-05-22T03:19:48.038Z,12.29
2019-05-22T03:23:08.464Z,12.30
2019-05-22T03:25:44.375Z,12.31
2019-05-22T03:28:17.609Z,12.26
2019-05-22T03:30:52.282Z,12.26
2019-05-22T03:33:25.436Z,12.37
2019-05-22T03:36:15.984Z,12.37
2019-05-22T03:38:49.590Z,12.31
2019-05-22T03:41:24.332Z,12.26
2019-05-22T03:43:58.844Z,11.97
2019-05-22T03:46:37.569Z,11.97
2019-05-22T03:49:29.307Z,12.16
2019-05-22T03:51:52.807Z,12.14
2019-05-22T03:54:26.821Z,12.02
2019-05-22T03:57:00.309Z,12.11
2019-05-22T03:59:32.232Z,12.01
2019-05-22T04:02:06.422Z,12.01
2019-05-22T04:04:42.650Z,12.18
2019-05-22T04:07:17.342Z,12.15
2019-05-22T04:09:52.327Z,12.21
2019-05-22T04:12:27.237Z,12.07
2019-05-22T04:15:00.624Z,12.34
2019-05-22T04:17:36.423Z,12.34
2019-05-22T04:20:09.411Z,12.10
2019-05-22T04:22:44.277Z,12.20
2019-05-22T04:25:17.589Z,11.92
2019-05-22T04:27:51.563Z,11.92
2019-05-22T04:30:26.039Z,12.02
2019-05-22T04:33:14.767Z,12.07
2019-05-22T04:35:46.355Z,12.10
2019-05-22T04:38:19.929Z,12.09
2019-05-22T04:43:00.342Z,12.11
2019-05-22T04:45:32.813Z,12.04
2019-05-22T04:48:06.774Z,12.04
2019-05-22T04:50:40.328Z,12.25
2019-05-22T04:53:13.384Z,12.19
2019-05-22T04:55:46.299Z,12.20
2019-05-22T04:58:21.737Z,12.20
2019-05-22T05:03:44.947Z,12.21
2019-05-22T05:06:19.002Z,12.04
2019-05-22T05:08:52.632Z,12.15
2019-05-22T05:11:26.746Z,11.94
2019-05-22T05:13:59.321Z,11.78
2019-05-22T05:16:31.722Z,11.80
2019-05-22T05:19:05.741Z,11.80
2019-05-22T05:21:40.303Z,11.88
2019-05-22T05:24:13.661Z,11.89
2019-05-22T05:26:46.741Z,11.98
2019-05-22T05:29:33.659Z,11.80
2019-05-22T05:32:08.050Z,11.79
2019-05-22T05:34:55.524Z,11.88
2019-05-22T05:37:28.802Z,11.93
2019-05-22T05:40:10.287Z,12.04
2019-05-22T05:42:43.453Z,12.07
2019-05-22T05:45:16.508Z,12.21
2019-05-22T05:47:49.289Z,12.28
2019-05-22T05:50:37.847Z,12.51
2019-05-22T05:54:23.790Z,12.51
2019-05-22T05:57:19.336Z,12.58
2019-05-22T05:59:52.051Z,12.83
2019-05-22T06:02:25.661Z,12.83
2019-05-22T06:04:58.281Z,12.78
2019-05-22T06:07:30.794Z,12.92
2019-05-22T06:10:38.520Z,12.92
2019-05-22T06:13:13.297Z,13.01
2019-05-22T06:15:57.350Z,13.06
2019-05-22T06:18:38.891Z,13.06
2019-05-22T06:21:12.288Z,13.10
2019-05-22T06:24:06.676Z,13.23
2019-05-22T06:26:51.697Z,13.23
2019-05-22T06:29:28.265Z,13.27
2019-05-22T06:32:13.287Z,13.44
2019-05-22T06:36:55.300Z,13.58
2019-05-22T06:39:28.018Z,13.48
2019-05-22T06:42:00.579Z,13.48
2019-05-22T06:44:37.876Z,13.49
2019-05-22T06:47:15.289Z,13.58
2019-05-22T06:49:49.527Z,13.44
2019-05-22T06:52:22.264Z,13.44
2019-05-22T06:54:55.594Z,13.64
2019-05-22T06:57:29.834Z,13.52
2019-05-22T07:00:14.335Z,13.56
2019-05-22T07:02:45.109Z,13.34
2019-05-22T07:05:20.660Z,13.27
2019-05-22T07:07:53.300Z,13.34
2019-05-22T07:10:26.349Z,13.49
2019-05-22T07:13:01.291Z,13.67
2019-05-22T07:15:37.738Z,13.55
2019-05-22T07:18:13.404Z,13.55
2019-05-22T07:20:49.588Z,13.63
2019-05-22T07:23:25.018Z,13.75
2019-05-22T07:25:58.841Z,13.71
2019-05-22T07:28:31.409Z,13.74
2019-05-22T07:31:07.389Z,13.81
2019-05-22T07:33:39.842Z,13.93
2019-05-22T07:36:16.627Z,13.93
2019-05-22T07:38:47.845Z,14.13
2019-05-22T07:42:08.291Z,14.17
2019-05-22T07:44:41.293Z,14.27
2019-05-22T07:47:17.406Z,14.27
2019-05-22T07:49:49.778Z,14.95
2019-05-22T07:52:23.318Z,14.95
2019-05-22T07:54:56.288Z,14.97
2019-05-22T07:57:30.259Z,15.06
2019-05-22T08:00:03.326Z,15.32
2019-05-22T08:02:50.894Z,15.39
2019-05-22T08:05:25.892Z,15.48
2019-05-22T08:07:58.286Z,15.75
2019-05-22T08:10:30.731Z,15.53
2019-05-22T08:13:03.615Z,15.54
2019-05-22T08:15:36.447Z,15.26
2019-05-22T08:18:09.838Z,15.43
2019-05-22T08:20:42.746Z,15.63
2019-05-22T08:23:16.118Z,15.81
2019-05-22T08:25:49.286Z,16.02
2019-05-22T08:28:22.696Z,15.93
2019-05-22T08:30:56.506Z,15.93
2019-05-22T08:33:28.244Z,16.11
2019-05-22T08:36:01.533Z,16.22
2019-05-22T08:38:35.253Z,15.83
2019-05-22T08:41:11.288Z,15.85
2019-05-22T08:44:15.450Z,15.63
2019-05-22T08:46:21.730Z,15.75
2019-05-22T08:48:55.755Z,15.85
2019-05-22T08:51:28.252Z,16.18
2019-05-22T08:54:05.834Z,15.91
2019-05-22T08:56:44.867Z,15.79
2019-05-22T08:59:19.906Z,15.79
2019-05-22T09:01:59.283Z,15.95
2019-05-22T09:04:31.761Z,16.34
2019-05-22T09:07:04.577Z,16.34
2019-05-22T09:09:37.276Z,16.17
2019-05-22T09:12:11.603Z,16.16
2019-05-22T09:14:45.808Z,16.16
2019-05-22T09:17:19.688Z,16.14
2019-05-22T09:19:53.282Z,15.99
2019-05-22T09:22:39.502Z,16.86
2019-05-22T09:25:01.386Z,16.86
2019-05-22T09:27:33.979Z,17.57
2019-05-22T09:30:11.299Z,17.67
2019-05-22T09:32:47.561Z,17.08
2019-05-22T09:35:20.248Z,17.49
2019-05-22T09:37:52.519Z,17.49
2019-05-22T09:40:25.416Z,17.45
2019-05-22T09:42:58.352Z,16.34
2019-05-22T09:45:32.115Z,16.47
2019-05-22T09:48:08.297Z,17.04
2019-05-22T09:50:40.886Z,16.75
2019-05-22T09:53:13.851Z,16.75
2019-05-22T09:55:47.755Z,16.94
2019-05-22T09:58:23.774Z,16.68
2019-05-22T10:00:56.755Z,16.38
2019-05-22T10:03:29.634Z,16.25
2019-05-22T10:06:03.102Z,16.32
2019-05-22T10:08:36.610Z,16.40
2019-05-22T10:11:09.312Z,16.57
2019-05-22T10:15:57.263Z,16.97
2019-05-22T10:18:29.779Z,16.67
2019-05-22T10:21:02.358Z,16.67
2019-05-22T10:23:35.280Z,16.66
2019-05-22T10:26:08.794Z,17.03
2019-05-22T10:28:43.727Z,17.03
2019-05-22T10:31:17.916Z,17.18
2019-05-22T10:33:52.090Z,17.01
2019-05-22T10:36:24.812Z,17.21
2019-05-22T10:38:58.721Z,17.21
2019-05-22T10:41:31.426Z,16.82
2019-05-22T10:44:05.606Z,16.56
2019-05-22T10:46:38.316Z,16.67
2019-05-22T10:49:10.768Z,17.38
2019-05-22T10:51:43.295Z,17.38
2019-05-22T10:54:15.252Z,17.77
2019-05-22T10:56:52.142Z,17.71
2019-05-22T10:59:24.288Z,17.53
2019-05-22T11:01:58.332Z,17.83
2019-05-22T11:04:32.307Z,17.71
2019-05-22T11:07:07.410Z,18.40
2019-05-22T11:09:40.701Z,18.40
2019-05-22T11:12:14.595Z,18.50
2019-05-22T11:14:49.485Z,18.57
2019-05-22T11:17:21.842Z,19.15
2019-05-22T11:19:55.303Z,19.23
2019-05-22T11:22:28.314Z,18.77
2019-05-22T11:25:01.458Z,19.22
2019-05-22T11:27:34.309Z,19.22
2019-05-22T11:30:11.847Z,18.71
2019-05-22T11:32:46.257Z,18.71
2019-05-22T11:35:20.799Z,18.84
2019-05-22T11:37:53.334Z,19.10
2019-05-22T11:40:26.566Z,19.20
2019-05-22T11:42:59.673Z,19.20
2019-05-22T11:45:34.685Z,19.12
2019-05-22T11:48:07.686Z,19.02
2019-05-22T11:50:44.334Z,19.04
2019-05-22T11:54:07.969Z,19.16
2019-05-22T11:56:32.279Z,19.16
2019-05-22T11:59:06.419Z,19.96
2019-05-22T12:01:40.016Z,19.96
2019-05-22T12:04:13.404Z,21.25
2019-05-22T12:06:47.443Z,22.86
2019-05-22T12:09:19.768Z,23.93
2019-05-22T12:11:52.880Z,25.49
2019-05-22T12:14:25.339Z,24.88
2019-05-22T12:16:58.266Z,25.10
2019-05-22T12:19:30.866Z,25.63
2019-05-22T12:22:03.309Z,25.04
2019-05-22T12:24:37.217Z,24.68
2019-05-22T12:27:11.317Z,28.77
2019-05-22T12:29:46.393Z,28.36
2019-05-22T12:32:19.362Z,29.15
2019-05-22T12:34:52.286Z,27.80
2019-05-22T12:37:25.288Z,27.73
2019-05-22T12:39:58.279Z,26.69
2019-05-22T12:42:31.324Z,24.73
2019-05-22T12:45:04.554Z,27.88
2019-05-22T12:47:37.396Z,27.88
2019-05-22T12:50:11.993Z,27.40
2019-05-22T12:52:49.620Z,26.74
2019-05-22T12:55:22.645Z,26.16
2019-05-22T12:57:55.506Z,25.84
2019-05-22T13:00:29.656Z,24.95
2019-05-22T13:03:05.310Z,25.70
2019-05-22T13:05:43.046Z,28.57
2019-05-22T13:08:19.364Z,28.57
2019-05-22T13:10:53.298Z,26.27
2019-05-22T13:13:25.483Z,26.27
2019-05-22T13:15:59.719Z,26.23
2019-05-22T13:18:31.919Z,28.34
2019-05-22T13:21:05.688Z,30.01
2019-05-22T13:23:39.588Z,31.93
2019-05-22T13:26:12.474Z,29.81
2019-05-22T13:28:50.477Z,30.69
2019-05-22T13:31:24.040Z,30.48
2019-05-22T13:33:58.034Z,28.43
2019-05-22T13:36:31.295Z,27.68
2019-05-22T13:39:06.078Z,29.06
2019-05-22T13:41:39.261Z,29.06
2019-05-22T13:44:13.616Z,33.22
2019-05-22T13:46:49.614Z,33.22
2019-05-22T13:49:23.301Z,30.17
2019-05-22T13:51:55.652Z,31.79
2019-05-22T13:54:28.403Z,31.79
2019-05-22T13:57:01.325Z,34.41
2019-05-22T13:59:34.338Z,31.70
2019-05-22T14:02:07.441Z,30.95
2019-05-22T14:04:40.713Z,30.95
2019-05-22T14:07:14.346Z,30.37
2019-05-22T14:09:47.799Z,33.32
2019-05-22T14:12:20.600Z,34.66
2019-05-22T14:14:56.436Z,35.70
2019-05-22T14:17:29.299Z,33.99
2019-05-22T14:20:02.283Z,31.37
2019-05-22T14:22:37.650Z,32.85
2019-05-22T14:25:10.852Z,34.64
2019-05-22T14:27:43.475Z,35.51
2019-05-22T14:30:20.296Z,35.25
2019-05-22T14:32:52.625Z,31.00
2019-05-22T14:35:32.911Z,31.00
2019-05-22T14:38:03.028Z,31.97
2019-05-22T14:40:36.376Z,32.65
2019-05-22T14:43:09.456Z,35.50
2019-05-22T14:45:43.308Z,33.79
2019-05-22T14:48:16.441Z,35.93
2019-05-22T14:50:50.022Z,35.93
2019-05-22T14:53:24.289Z,36.50
2019-05-22T14:55:57.017Z,35.34
2019-05-22T14:58:30.290Z,35.34
2019-05-22T15:01:03.346Z,35.97
2019-05-22T15:03:39.285Z,35.97
2019-05-22T15:06:12.337Z,32.64
2019-05-22T15:08:44.698Z,32.64
2019-05-22T15:11:18.707Z,32.57
2019-05-22T15:13:51.339Z,34.77
2019-05-22T15:16:23.254Z,34.48
2019-05-22T15:18:56.192Z,34.48
2019-05-22T15:21:28.317Z,31.49
2019-05-22T15:24:01.331Z,31.34
2019-05-22T15:26:33.900Z,30.33
2019-05-22T15:29:07.355Z,30.84
2019-05-22T15:31:39.677Z,30.80
2019-05-22T15:34:13.750Z,30.80
2019-05-22T15:36:47.447Z,32.68
2019-05-22T15:39:25.853Z,34.90
2019-05-22T15:41:58.310Z,33.75
2019-05-22T15:44:31.100Z,34.12
2019-05-22T15:47:03.984Z,34.12
2019-05-22T15:49:38.965Z,34.78
2019-05-22T15:52:16.661Z,34.20
2019-05-22T15:54:50.911Z,34.32
2019-05-22T15:57:24.289Z,34.61
2019-05-22T15:59:58.343Z,30.86
2019-05-22T16:02:34.291Z,30.86
2019-05-22T16:05:09.754Z,28.53
2019-05-22T16:07:43.310Z,28.53
2019-05-22T16:10:19.582Z,27.68
2019-05-22T16:12:54.677Z,27.68
2019-05-22T16:15:30.664Z,26.52
2019-05-22T16:18:11.804Z,26.45
2019-05-22T16:20:42.844Z,26.10
2019-05-22T16:23:15.753Z,26.10
2019-05-22T16:25:49.470Z,25.67
2019-05-22T16:28:25.318Z,25.92
2019-05-22T16:31:01.301Z,23.93
2019-05-22T16:33:35.462Z,24.32
2019-05-22T16:36:10.296Z,24.32
2019-05-22T16:38:45.798Z,23.91
2019-05-22T16:41:21.311Z,23.91
2019-05-22T16:43:54.324Z,22.46
2019-05-22T16:46:28.308Z,22.46
2019-05-22T16:49:00.924Z,22.82
2019-05-22T16:51:33.659Z,22.40
2019-05-22T16:54:11.688Z,22.48
2019-05-22T16:56:44.302Z,22.48
2019-05-22T16:59:21.304Z,21.81
2019-05-22T17:01:59.445Z,21.81
2019-05-22T17:04:29.707Z,21.79
2019-05-22T17:07:04.744Z,21.40
2019-05-22T17:09:43.551Z,21.03
2019-05-22T17:12:19.682Z,21.03
2019-05-22T17:14:53.285Z,20.98
2019-05-22T17:17:26.320Z,20.78
2019-05-22T17:19:59.336Z,20.09
2019-05-22T17:22:32.311Z,20.08
2019-05-22T17:25:06.303Z,20.13
2019-05-22T17:27:39.507Z,20.04
2019-05-22T17:30:20.460Z,20.04
2019-05-22T17:32:50.754Z,19.68
2019-05-22T17:35:24.801Z,19.68
2019-05-22T17:37:59.246Z,19.51
2019-05-22T17:40:32.866Z,19.49
2019-05-22T17:43:07.323Z,19.37
2019-05-22T17:45:42.307Z,19.21
2019-05-22T17:48:16.666Z,19.13
2019-05-22T17:50:50.308Z,19.13
2019-05-22T17:53:23.064Z,18.97
2019-05-22T17:55:55.999Z,18.97
2019-05-22T17:58:30.060Z,18.85
2019-05-22T18:01:19.909Z,18.73
2019-05-22T18:04:02.305Z,18.68
2019-05-22T18:06:35.169Z,18.35
2019-05-22T18:09:11.424Z,18.35
2019-05-22T18:11:44.315Z,18.21
2019-05-22T18:14:16.973Z,17.85
2019-05-22T18:16:49.544Z,17.85
2019-05-22T18:19:23.030Z,17.91
2019-05-22T18:21:57.421Z,17.80
2019-05-22T18:24:30.331Z,17.67
2019-05-22T18:27:02.530Z,17.48
2019-05-22T18:29:35.296Z,17.35
2019-05-22T18:32:09.076Z,17.01
2019-05-22T18:34:42.291Z,17.01
2019-05-22T18:37:14.749Z,16.89
2019-05-22T18:39:47.292Z,16.89
2019-05-22T18:42:20.288Z,16.51
2019-05-22T18:44:53.669Z,16.51
2019-05-22T18:47:27.529Z,16.41
2019-05-22T18:50:00.395Z,16.24
2019-05-22T18:52:40.881Z,15.66
2019-05-22T18:55:09.330Z,15.66
2019-05-22T18:57:42.310Z,15.79
2019-05-22T19:00:20.029Z,15.59
2019-05-22T19:02:52.994Z,15.59
2019-05-22T19:05:30.053Z,15.41
2019-05-22T19:08:06.162Z,15.27
2019-05-22T19:10:40.633Z,14.92
2019-05-22T19:13:16.550Z,14.92
2019-05-22T19:15:50.905Z,14.69
2019-05-22T19:18:23.321Z,14.69
2019-05-22T19:20:58.300Z,14.45
2019-05-22T19:23:30.754Z,14.29
2019-05-22T19:26:05.706Z,14.29
2019-05-22T19:28:44.022Z,14.24
2019-05-22T19:31:12.690Z,14.06
2019-05-22T19:33:46.113Z,13.93
2019-05-22T19:36:19.826Z,13.80
2019-05-22T19:41:31.288Z,13.69
2019-05-22T19:44:03.733Z,13.47
2019-05-22T19:46:36.315Z,13.47
2019-05-22T19:49:09.310Z,13.17
2019-05-22T19:51:44.529Z,13.13
2019-05-22T19:54:17.158Z,13.13
2019-05-22T19:56:51.308Z,13.07
2019-05-22T19:59:24.347Z,12.97
2019-05-22T20:01:56.818Z,12.85
2019-05-22T20:04:30.041Z,12.85
2019-05-22T20:07:04.509Z,12.73
2019-05-22T20:09:40.390Z,12.67
2019-05-22T20:12:14.518Z,12.65
2019-05-22T20:14:47.420Z,12.51
2019-05-22T20:17:20.783Z,12.25
2019-05-22T20:19:54.068Z,12.25
2019-05-22T20:22:27.641Z,12.21
2019-05-22T20:25:01.703Z,12.12
2019-05-22T20:27:35.750Z,12.08
2019-05-22T20:30:13.298Z,11.99
2019-05-22T20:32:45.861Z,11.95
2019-05-22T20:35:19.303Z,11.94
2019-05-22T20:37:52.329Z,11.57
2019-05-22T20:40:27.154Z,11.52
2019-05-22T20:43:00.731Z,11.52
2019-05-22T20:45:33.741Z,11.55
2019-05-22T20:48:15.310Z,11.41
2019-05-22T20:50:48.299Z,11.29
2019-05-22T20:53:22.658Z,11.20
2019-05-22T20:55:56.324Z,11.20
2019-05-22T20:58:31.023Z,10.93
2019-05-22T21:01:04.026Z,10.93
2019-05-22T21:03:37.308Z,11.03
2019-05-22T21:06:16.327Z,10.97
2019-05-22T21:08:50.736Z,10.90
2019-05-22T21:11:27.838Z,10.90
2019-05-22T21:14:00.622Z,10.83
2019-05-22T21:16:34.637Z,10.72
2019-05-22T21:19:09.832Z,10.65
2019-05-22T21:21:42.816Z,10.55
2019-05-22T21:24:15.271Z,10.45
2019-05-22T21:26:51.445Z,10.38
2019-05-22T21:29:24.659Z,10.33
2019-05-22T21:31:57.396Z,10.32
2019-05-22T21:34:30.309Z,9.99
2019-05-22T21:37:03.311Z,10.11
2019-05-22T21:41:05.459Z,10.10
2019-05-22T21:43:38.350Z,9.90
2019-05-22T21:46:11.387Z,9.90
2019-05-22T21:48:45.369Z,9.83
2019-05-22T21:51:17.802Z,9.85
2019-05-22T21:53:54.687Z,9.85
2019-05-22T21:56:27.773Z,9.74
2019-05-22T21:59:00.318Z,9.72
2019-05-22T22:01:35.658Z,9.66
2019-05-22T22:04:10.900Z,9.66
2019-05-22T22:06:45.015Z,9.64
2019-05-22T22:09:18.989Z,9.59
2019-05-22T22:11:51.580Z,9.54
2019-05-22T22:14:27.317Z,9.43
2019-05-22T22:17:03.088Z,9.22
2019-05-22T22:19:35.843Z,9.22
2019-05-22T22:22:17.743Z,9.31
2019-05-22T22:24:53.400Z,9.27
2019-05-22T22:27:26.696Z,9.20
2019-05-22T22:30:00.625Z,9.14
2019-05-22T22:32:35.464Z,9.03
2019-05-22T22:35:21.843Z,9.00
2019-05-22T22:37:55.423Z,8.90
2019-05-22T22:40:30.374Z,8.82
2019-05-22T22:43:06.391Z,8.83
2019-05-22T22:45:44.446Z,8.82
2019-05-22T22:48:32.360Z,8.85
2019-05-22T22:51:10.276Z,8.80
2019-05-22T22:53:46.048Z,8.70
2019-05-22T22:56:19.878Z,8.70
2019-05-22T22:58:53.318Z,8.66
2019-05-22T23:01:34.317Z,8.41
2019-05-22T23:04:10.879Z,8.63
2019-05-22T23:06:44.219Z,8.63
2019-05-22T23:09:18.666Z,8.46
2019-05-22T23:11:53.336Z,8.47
2019-05-22T23:14:27.975Z,8.25
2019-05-22T23:17:01.289Z,8.25
2019-05-22T23:19:35.648Z,8.18
2019-05-22T23:22:06.281Z,8.18
2019-05-22T23:24:40.777Z,8.17
2019-05-22T23:27:14.274Z,8.21
2019-05-22T23:29:47.398Z,8.15
2019-05-22T23:32:21.792Z,8.09
2019-05-22T23:34:55.436Z,8.06
2019-05-22T23:37:30.306Z,8.01
2019-05-22T23:40:03.290Z,7.80
2019-05-22T23:42:42.007Z,7.73
2019-05-22T23:45:22.398Z,7.73
2019-05-22T23:48:08.384Z,7.77
2019-05-22T23:50:42.305Z,7.79
2019-05-22T23:53:16.630Z,7.71
2019-05-22T23:55:50.425Z,7.71
2019-05-22T23:58:25.761Z,7.72
